createdAt,value
2023-05-12T00:00:08.227Z,100587.19
2023-05-12T00:02:34.702Z,100587.38
2023-05-12T00:05:01.454Z,100587.09
2023-05-12T00:07:28.054Z,100590.84
2023-05-12T00:09:54.354Z,100584.16
2023-05-12T00:12:20.679Z,100584.38
2023-05-12T00:14:47.001Z,100586.00
2023-05-12T00:17:13.302Z,100589.41
2023-05-12T00:19:39.625Z,100592.41
2023-05-12T00:22:05.932Z,100610.53
2023-05-12T00:24:32.265Z,100606.59
2023-05-12T00:26:58.612Z,100615.75
2023-05-12T00:29:24.979Z,100613.63
2023-05-12T00:31:51.335Z,100613.50
2023-05-12T00:34:17.697Z,100612.84
2023-05-12T00:36:44.058Z,100623.00
2023-05-12T00:39:10.369Z,100628.09
2023-05-12T00:41:36.705Z,100624.84
2023-05-12T00:44:03.254Z,100627.66
2023-05-12T00:46:29.668Z,100628.41
2023-05-12T00:48:56.092Z,100626.38
2023-05-12T00:51:23.292Z,100619.34
2023-05-12T00:53:50.542Z,100623.84
2023-05-12T00:56:19.082Z,100623.19
2023-05-12T00:58:45.963Z,100621.06
2023-05-12T01:01:12.433Z,100619.66
2023-05-12T01:03:38.948Z,100618.03
2023-05-12T01:06:08.057Z,100615.16
2023-05-12T01:08:34.952Z,100613.63
2023-05-12T01:11:01.281Z,100621.50
2023-05-12T01:13:28.122Z,100614.16
2023-05-12T01:15:56.371Z,100616.41
2023-05-12T01:18:24.088Z,100612.84
2023-05-12T01:20:51.198Z,100612.09
2023-05-12T01:23:20.079Z,100609.09
2023-05-12T01:25:49.156Z,100607.00
2023-05-12T01:28:16.497Z,100616.22
2023-05-12T01:30:43.709Z,100613.97
2023-05-12T01:33:10.248Z,100613.97
2023-05-12T01:35:36.557Z,100611.78
2023-05-12T01:38:02.888Z,100611.84
2023-05-12T01:40:29.215Z,100617.75
2023-05-12T01:42:55.510Z,100622.97
2023-05-12T01:45:21.824Z,100630.28
2023-05-12T01:47:48.168Z,100626.75
2023-05-12T01:50:14.466Z,100629.19
2023-05-12T01:52:40.757Z,100630.38
2023-05-12T01:55:07.479Z,100633.75
2023-05-12T01:57:33.780Z,100638.53
2023-05-12T02:00:00.128Z,100632.59
2023-05-12T02:02:26.510Z,100639.03
2023-05-12T02:04:52.991Z,100640.44
2023-05-12T02:07:19.320Z,100648.38
2023-05-12T02:09:45.994Z,100640.44
2023-05-12T02:12:12.373Z,100641.38
2023-05-12T02:14:38.707Z,100633.16
2023-05-12T02:17:05.017Z,100639.63
2023-05-12T02:19:31.384Z,100634.72
2023-05-12T02:21:57.690Z,100638.38
2023-05-12T02:24:24.005Z,100635.28
2023-05-12T02:26:50.293Z,100631.69
2023-05-12T02:29:16.597Z,100639.69
2023-05-12T02:31:42.955Z,100634.34
2023-05-12T02:34:09.277Z,100648.44
2023-05-12T02:36:35.585Z,100652.41
2023-05-12T02:39:01.886Z,100649.41
2023-05-12T02:41:28.294Z,100654.97
2023-05-12T02:43:54.597Z,100650.13
2023-05-12T02:46:20.944Z,100641.97
2023-05-12T02:48:47.287Z,100647.63
2023-05-12T02:51:13.784Z,100645.22
2023-05-12T02:53:40.099Z,100647.28
2023-05-12T02:56:06.760Z,100637.56
2023-05-12T02:58:33.069Z,100642.66
2023-05-12T03:01:09.387Z,100634.41
2023-05-12T03:03:37.809Z,100637.50
2023-05-12T03:06:04.989Z,100642.03
2023-05-12T03:08:31.583Z,100641.75
2023-05-12T03:10:57.956Z,100633.00
2023-05-12T03:13:24.325Z,100647.28
2023-05-12T03:15:50.628Z,100639.03
2023-05-12T03:18:16.934Z,100643.00
2023-05-12T03:20:43.345Z,100641.44
2023-05-12T03:23:09.653Z,100643.69
2023-05-12T03:25:35.981Z,100638.97
2023-05-12T03:28:02.537Z,100646.41
2023-05-12T03:30:29.031Z,100643.94
2023-05-12T03:32:55.384Z,100645.34
2023-05-12T03:35:21.712Z,100641.31
2023-05-12T03:37:48.014Z,100638.84
2023-05-12T03:40:14.399Z,100642.00
2023-05-12T03:42:40.706Z,100646.88
2023-05-12T03:45:07.678Z,100649.22
2023-05-12T03:47:34.029Z,100656.84
2023-05-12T03:50:00.457Z,100654.13
2023-05-12T03:52:26.763Z,100637.50
2023-05-12T03:54:53.163Z,100645.66
2023-05-12T03:57:19.469Z,100648.91
2023-05-12T03:59:45.776Z,100650.97
2023-05-12T04:02:12.134Z,100651.97
2023-05-12T04:04:38.517Z,100655.66
2023-05-12T04:07:05.162Z,100652.41
2023-05-12T04:09:32.645Z,100653.94
2023-05-12T04:11:59.074Z,100658.25
2023-05-12T04:14:35.290Z,100653.41
2023-05-12T04:17:08.334Z,100655.84
2023-05-12T04:19:34.646Z,100653.25
2023-05-12T04:22:00.981Z,100659.69
2023-05-12T04:24:27.293Z,100657.19
2023-05-12T04:26:53.593Z,100664.66
2023-05-12T04:29:19.882Z,100672.53
2023-05-12T04:31:46.220Z,100677.88
2023-05-12T04:34:12.653Z,100677.78
2023-05-12T04:36:39.035Z,100684.84
2023-05-12T04:39:05.357Z,100675.88
2023-05-12T04:41:31.657Z,100680.91
2023-05-12T04:44:00.850Z,100679.72
2023-05-12T04:46:27.361Z,100691.53
2023-05-12T04:48:53.732Z,100688.22
2023-05-12T04:51:20.053Z,100689.84
2023-05-12T04:53:46.363Z,100698.72
2023-05-12T04:56:12.673Z,100694.28
2023-05-12T04:58:38.991Z,100700.94
2023-05-12T05:01:05.337Z,100699.63
2023-05-12T05:03:31.823Z,100695.81
2023-05-12T05:05:58.259Z,100715.66
2023-05-12T05:08:24.569Z,100715.25
2023-05-12T05:10:50.945Z,100716.28
2023-05-12T05:13:17.290Z,100719.19
2023-05-12T05:15:53.648Z,100722.53
2023-05-12T05:18:22.307Z,100721.81
2023-05-12T05:20:57.292Z,100722.72
2023-05-12T05:23:24.690Z,100732.59
2023-05-12T05:25:51.058Z,100740.75
2023-05-12T05:28:17.352Z,100737.84
2023-05-12T05:30:43.709Z,100742.56
2023-05-12T05:33:10.104Z,100739.06
2023-05-12T05:35:36.534Z,100745.50
2023-05-12T05:38:02.882Z,100749.72
2023-05-12T05:40:33.812Z,100747.50
2023-05-12T05:43:05.152Z,100754.34
2023-05-12T05:45:31.539Z,100750.13
2023-05-12T05:47:57.976Z,100762.00
2023-05-12T05:50:24.316Z,100753.63
2023-05-12T05:52:50.715Z,100747.03
2023-05-12T05:55:17.249Z,100754.50
2023-05-12T05:57:43.704Z,100761.44
2023-05-12T06:00:10.549Z,100764.69
2023-05-12T06:02:36.976Z,100774.84
2023-05-12T06:05:03.419Z,100773.84
2023-05-12T06:07:29.726Z,100775.84
2023-05-12T06:09:56.101Z,100782.06
2023-05-12T06:12:22.392Z,100777.41
2023-05-12T06:14:48.706Z,100781.72
2023-05-12T06:17:15.114Z,100782.06
2023-05-12T06:19:41.429Z,100787.91
2023-05-12T06:22:07.713Z,100781.72
2023-05-12T06:24:34.029Z,100792.69
2023-05-12T06:27:00.357Z,100797.28
2023-05-12T06:29:26.691Z,100799.97
2023-05-12T06:31:53.029Z,100798.13
2023-05-12T06:34:19.423Z,100794.84
2023-05-12T06:36:45.775Z,100795.97
2023-05-12T06:39:12.146Z,100804.16
2023-05-12T06:41:38.473Z,100796.44
2023-05-12T06:44:04.935Z,100796.22
2023-05-12T06:46:31.269Z,100795.97
2023-05-12T06:48:57.832Z,100794.69
2023-05-12T06:51:24.186Z,100803.56
2023-05-12T06:53:50.520Z,100802.28
2023-05-12T06:56:16.833Z,100796.75
2023-05-12T06:58:45.992Z,100800.50
2023-05-12T07:01:12.325Z,100802.63
2023-05-12T07:03:38.650Z,100794.88
2023-05-12T07:06:05.135Z,100804.09
2023-05-12T07:08:31.475Z,100810.50
2023-05-12T07:11:00.266Z,100802.81
2023-05-12T07:13:26.952Z,100806.06
2023-05-12T07:15:53.357Z,100797.34
2023-05-12T07:18:19.877Z,100801.53
2023-05-12T07:20:46.219Z,100797.31
2023-05-12T07:23:13.164Z,100797.34
2023-05-12T07:25:39.591Z,100797.78
2023-05-12T07:28:06.012Z,100793.91
2023-05-12T07:30:32.358Z,100796.91
2023-05-12T07:32:58.827Z,100791.69
2023-05-12T07:35:25.166Z,100791.03
2023-05-12T07:37:51.461Z,100788.16
2023-05-12T07:40:17.874Z,100783.81
2023-05-12T07:42:44.188Z,100797.31
2023-05-12T07:45:10.836Z,100792.06
2023-05-12T07:47:37.147Z,100787.69
2023-05-12T07:50:03.577Z,100799.44
2023-05-12T07:52:29.917Z,100796.63
2023-05-12T07:54:56.860Z,100797.00
2023-05-12T07:57:23.801Z,100796.13
2023-05-12T07:59:50.136Z,100808.94
2023-05-12T08:02:16.503Z,100800.28
2023-05-12T08:04:44.538Z,100804.88
2023-05-12T08:07:10.984Z,100801.91
2023-05-12T08:09:37.276Z,100797.59
2023-05-12T08:12:03.806Z,100799.69
2023-05-12T08:14:30.119Z,100800.47
2023-05-12T08:16:56.483Z,100788.56
2023-05-12T08:19:22.851Z,100796.56
2023-05-12T08:21:49.182Z,100791.38
2023-05-12T08:24:15.492Z,100800.28
2023-05-12T08:26:41.793Z,100794.56
2023-05-12T08:29:08.098Z,100793.81
2023-05-12T08:31:34.549Z,100795.47
2023-05-12T08:34:09.637Z,100793.63
2023-05-12T08:36:38.341Z,100789.00
2023-05-12T08:39:05.104Z,100788.19
2023-05-12T08:41:31.350Z,100802.00
2023-05-12T08:43:59.229Z,100793.94
2023-05-12T08:46:25.816Z,100807.00
2023-05-12T08:48:55.115Z,100796.81
2023-05-12T08:51:24.121Z,100795.41
2023-05-12T08:53:53.269Z,100796.38
2023-05-12T08:58:49.847Z,100799.41
2023-05-12T09:01:17.642Z,100797.53
2023-05-12T09:03:44.297Z,100801.25
2023-05-12T09:06:11.750Z,100786.13
2023-05-12T09:08:39.480Z,100795.78
2023-05-12T09:11:05.813Z,100800.41
2023-05-12T09:14:00.828Z,100794.00
2023-05-12T09:16:29.910Z,100795.69
2023-05-12T09:18:59.044Z,100794.81
2023-05-12T09:21:26.320Z,100786.97
2023-05-12T09:23:57.868Z,100788.91
2023-05-12T09:26:26.126Z,100793.53
2023-05-12T09:28:54.533Z,100795.03
2023-05-12T09:31:22.864Z,100795.34
2023-05-12T09:33:52.682Z,100797.69
2023-05-12T09:36:20.564Z,100797.88
2023-05-12T09:38:58.053Z,100787.13
2023-05-12T09:41:24.387Z,100789.78
2023-05-12T09:43:53.068Z,100790.09
2023-05-12T09:46:19.401Z,100799.75
2023-05-12T09:48:47.926Z,100789.75
2023-05-12T09:51:17.323Z,100788.97
2023-05-12T09:53:44.004Z,100789.16
2023-05-12T09:56:14.291Z,100790.78
2023-05-12T09:58:48.014Z,100788.50
2023-05-12T10:01:22.882Z,100792.16
2023-05-12T10:03:57.429Z,100792.41
2023-05-12T10:06:27.707Z,100799.22
2023-05-12T10:09:02.343Z,100798.06
2023-05-12T10:11:29.472Z,100795.41
2023-05-12T10:13:57.459Z,100799.03
2023-05-12T10:16:24.562Z,100797.44
2023-05-12T10:18:51.541Z,100792.47
2023-05-12T10:21:18.871Z,100798.28
2023-05-12T10:23:46.310Z,100797.97
2023-05-12T10:26:14.055Z,100790.59
2023-05-12T10:28:40.836Z,100798.50
2023-05-12T10:31:07.792Z,100789.38
2023-05-12T10:33:34.204Z,100796.13
2023-05-12T10:36:00.785Z,100786.00
2023-05-12T10:38:35.061Z,100790.16
2023-05-12T10:41:02.981Z,100797.03
2023-05-12T10:43:41.230Z,100791.97
2023-05-12T10:46:18.561Z,100796.06
2023-05-12T10:49:08.351Z,100795.81
2023-05-12T10:51:47.048Z,100793.25
2023-05-12T10:54:20.577Z,100789.84
2023-05-12T10:56:48.031Z,100797.97
2023-05-12T10:59:17.824Z,100784.63
2023-05-12T11:02:00.300Z,100806.50
2023-05-12T11:04:38.326Z,100796.78
2023-05-12T11:07:06.165Z,100787.50
2023-05-12T11:09:36.337Z,100797.63
2023-05-12T11:12:04.474Z,100790.06
2023-05-12T11:14:31.340Z,100793.38
2023-05-12T11:16:57.641Z,100792.84
2023-05-12T11:19:23.932Z,100782.56
2023-05-12T11:21:51.261Z,100773.75
2023-05-12T11:24:17.634Z,100784.47
2023-05-12T11:26:44.047Z,100785.06
2023-05-12T11:29:10.348Z,100783.81
2023-05-12T11:31:36.701Z,100786.63
2023-05-12T11:34:11.937Z,100786.13
2023-05-12T11:36:41.730Z,100783.97
2023-05-12T11:39:13.819Z,100786.69
2023-05-12T11:41:40.224Z,100783.25
2023-05-12T11:44:17.100Z,100794.28
2023-05-12T11:47:02.853Z,100777.84
2023-05-12T11:49:31.192Z,100788.13
2023-05-12T11:52:00.901Z,100777.84
2023-05-12T11:54:29.271Z,100787.00
2023-05-12T11:56:57.183Z,100791.69
2023-05-12T11:59:28.562Z,100790.53
2023-05-12T12:01:55.302Z,100799.34
2023-05-12T12:04:34.920Z,100798.38
2023-05-12T12:07:02.063Z,100794.72
2023-05-12T12:09:39.712Z,100790.69
2023-05-12T12:12:07.815Z,100792.38
2023-05-12T12:14:35.841Z,100800.97
2023-05-12T12:17:02.754Z,100793.66
2023-05-12T12:19:29.167Z,100788.25
2023-05-12T12:21:56.720Z,100792.75
2023-05-12T12:24:24.026Z,100786.72
2023-05-12T12:26:50.619Z,100796.25
2023-05-12T12:29:17.676Z,100801.72
2023-05-12T12:31:44.401Z,100792.06
2023-05-12T12:34:10.806Z,100803.00
2023-05-12T12:36:37.244Z,100801.38
2023-05-12T12:39:03.684Z,100795.34
2023-05-12T12:41:30.030Z,100788.16
2023-05-12T12:43:56.317Z,100796.59
2023-05-12T12:46:22.764Z,100795.00
2023-05-12T12:48:49.118Z,100785.97
2023-05-12T12:51:15.529Z,100779.94
2023-05-12T12:53:41.823Z,100789.13
2023-05-12T12:56:08.153Z,100785.53
2023-05-12T12:58:34.876Z,100767.34
2023-05-12T13:01:01.857Z,100785.75
2023-05-12T13:03:28.284Z,100796.59
2023-05-12T13:05:54.788Z,100794.44
2023-05-12T13:08:21.098Z,100785.81
2023-05-12T13:10:47.442Z,100792.69
2023-05-12T13:13:13.755Z,100788.03
2023-05-12T13:15:40.326Z,100784.22
2023-05-12T13:18:06.738Z,100785.31
2023-05-12T13:20:33.173Z,100782.22
2023-05-12T13:22:59.522Z,100792.03
2023-05-12T13:25:25.835Z,100777.47
2023-05-12T13:27:52.157Z,100784.94
2023-05-12T13:30:18.470Z,100782.31
2023-05-12T13:32:44.979Z,100774.84
2023-05-12T13:35:11.302Z,100780.97
2023-05-12T13:37:41.463Z,100778.91
2023-05-12T13:40:08.337Z,100778.47
2023-05-12T13:42:34.711Z,100782.75
2023-05-12T13:45:01.121Z,100777.50
2023-05-12T13:47:27.464Z,100777.81
2023-05-12T13:49:53.895Z,100777.09
2023-05-12T13:52:20.219Z,100786.78
2023-05-12T13:54:46.574Z,100784.50
2023-05-12T13:57:12.978Z,100785.81
2023-05-12T13:59:39.434Z,100772.13
2023-05-12T14:02:05.817Z,100765.22
2023-05-12T14:04:32.257Z,100775.28
2023-05-12T14:06:58.584Z,100775.59
2023-05-12T14:09:24.911Z,100777.25
2023-05-12T14:11:51.245Z,100773.41
2023-05-12T14:14:17.586Z,100772.41
2023-05-12T14:16:43.893Z,100762.69
2023-05-12T14:19:10.348Z,100774.16
2023-05-12T14:21:36.681Z,100768.22
2023-05-12T14:24:03.118Z,100755.66
2023-05-12T14:26:29.420Z,100769.00
2023-05-12T14:28:55.896Z,100769.34
2023-05-12T14:31:22.417Z,100772.72
2023-05-12T14:33:48.754Z,100773.00
2023-05-12T14:36:15.109Z,100777.84
2023-05-12T14:38:41.416Z,100775.00
2023-05-12T14:41:07.726Z,100775.53
2023-05-12T14:43:34.020Z,100773.63
2023-05-12T14:46:00.400Z,100771.97
2023-05-12T14:48:26.737Z,100773.84
2023-05-12T14:50:56.793Z,100770.25
2023-05-12T14:53:23.626Z,100772.50
2023-05-12T14:55:50.333Z,100767.56
2023-05-12T14:58:16.998Z,100777.28
2023-05-12T15:00:46.409Z,100782.16
2023-05-12T15:03:12.896Z,100781.94
2023-05-12T15:05:53.268Z,100774.31
2023-05-12T15:08:26.572Z,100778.38
2023-05-12T15:10:52.898Z,100773.41
2023-05-12T15:13:19.212Z,100781.00
2023-05-12T15:15:45.995Z,100779.38
2023-05-12T15:18:12.399Z,100766.13
2023-05-12T15:20:38.806Z,100765.41
2023-05-12T15:23:05.112Z,100775.38
2023-05-12T15:25:31.523Z,100773.34
2023-05-12T15:27:57.876Z,100780.38
2023-05-12T15:30:24.255Z,100778.88
2023-05-12T15:32:50.609Z,100778.50
2023-05-12T15:35:17.006Z,100777.16
2023-05-12T15:37:43.323Z,100779.66
2023-05-12T15:40:10.063Z,100777.94
2023-05-12T15:42:36.400Z,100778.81
2023-05-12T15:45:02.899Z,100785.25
2023-05-12T15:47:29.222Z,100784.22
2023-05-12T15:49:55.558Z,100792.84
2023-05-12T15:52:21.862Z,100793.75
2023-05-12T15:54:48.224Z,100788.28
2023-05-12T15:57:14.527Z,100775.97
2023-05-12T15:59:40.836Z,100773.06
2023-05-12T16:02:07.305Z,100773.94
2023-05-12T16:04:33.680Z,100772.66
2023-05-12T16:06:59.980Z,100790.94
2023-05-12T16:09:26.283Z,100786.09
2023-05-12T16:11:52.589Z,100787.38
2023-05-12T16:14:18.992Z,100786.31
2023-05-12T16:16:45.888Z,100791.13
2023-05-12T16:19:12.273Z,100789.09
2023-05-12T16:21:38.596Z,100789.41
2023-05-12T16:24:06.636Z,100785.34
2023-05-12T16:26:35.006Z,100782.00
2023-05-12T16:29:01.363Z,100780.81
2023-05-12T16:31:27.740Z,100782.34
2023-05-12T16:33:54.141Z,100783.19
2023-05-12T16:36:20.445Z,100789.94
2023-05-12T16:38:46.766Z,100793.56
2023-05-12T16:41:13.057Z,100786.19
2023-05-12T16:43:39.350Z,100780.41
2023-05-12T16:46:05.700Z,100776.31
2023-05-12T16:48:32.033Z,100776.50
2023-05-12T16:51:16.549Z,100769.59
2023-05-12T16:53:42.946Z,100774.19
2023-05-12T16:56:09.551Z,100773.00
2023-05-12T16:58:35.900Z,100774.50
2023-05-12T17:01:02.317Z,100777.94
2023-05-12T17:03:29.369Z,100770.81
2023-05-12T17:05:55.939Z,100785.09
2023-05-12T17:08:22.321Z,100782.72
2023-05-12T17:10:48.635Z,100780.69
2023-05-12T17:13:14.984Z,100787.59
2023-05-12T17:15:41.345Z,100778.47
2023-05-12T17:18:07.734Z,100782.53
2023-05-12T17:20:34.139Z,100783.44
2023-05-12T17:23:00.587Z,100792.97
2023-05-12T17:25:27.959Z,100790.94
2023-05-12T17:27:54.654Z,100784.06
2023-05-12T17:30:21.170Z,100794.66
2023-05-12T17:32:47.524Z,100800.25
2023-05-12T17:35:13.915Z,100798.28
2023-05-12T17:37:40.412Z,100797.78
2023-05-12T17:40:07.253Z,100796.81
2023-05-12T17:42:34.409Z,100791.78
2023-05-12T17:45:01.610Z,100801.78
2023-05-12T17:47:28.253Z,100802.84
2023-05-12T17:49:54.721Z,100803.72
2023-05-12T17:52:21.024Z,100807.28
2023-05-12T17:54:47.386Z,100811.75
2023-05-12T17:57:13.676Z,100808.00
2023-05-12T17:59:40.002Z,100811.38
2023-05-12T18:02:06.630Z,100814.06
2023-05-12T18:04:32.953Z,100821.53
2023-05-12T18:06:59.288Z,100818.38
2023-05-12T18:09:25.590Z,100816.91
2023-05-12T18:11:51.904Z,100826.56
2023-05-12T18:14:18.187Z,100822.03
2023-05-12T18:16:44.532Z,100825.59
2023-05-12T18:19:11.009Z,100828.44
2023-05-12T18:21:37.364Z,100831.94
2023-05-12T18:24:03.852Z,100833.75
2023-05-12T18:26:30.190Z,100835.25
2023-05-12T18:28:56.585Z,100829.41
2023-05-12T18:31:23.020Z,100839.88
2023-05-12T18:33:50.066Z,100832.88
2023-05-12T18:36:16.815Z,100842.81
2023-05-12T18:38:43.478Z,100835.47
2023-05-12T18:41:10.420Z,100833.66
2023-05-12T18:43:36.954Z,100842.00
2023-05-12T18:46:04.507Z,100841.16
2023-05-12T18:48:31.180Z,100847.94
2023-05-12T18:50:57.787Z,100854.47
2023-05-12T18:53:27.176Z,100851.91
2023-05-12T18:55:53.878Z,100850.44
2023-05-12T18:58:20.413Z,100848.31
2023-05-12T19:00:46.711Z,100852.41
2023-05-12T19:03:13.162Z,100863.38
2023-05-12T19:05:42.637Z,100863.84
2023-05-12T19:08:08.980Z,100860.66
2023-05-12T19:10:37.282Z,100864.81
2023-05-12T19:13:06.044Z,100867.44
2023-05-12T19:15:38.447Z,100866.75
2023-05-12T19:18:04.819Z,100876.22
2023-05-12T19:20:33.323Z,100878.50
2023-05-12T19:23:02.722Z,100881.47
2023-05-12T19:25:31.549Z,100877.28
2023-05-12T19:27:57.991Z,100879.09
2023-05-12T19:30:24.591Z,100890.41
2023-05-12T19:32:53.733Z,100887.50
2023-05-12T19:35:20.954Z,100889.31
2023-05-12T19:37:47.601Z,100886.38
2023-05-12T19:40:14.150Z,100894.59
2023-05-12T19:42:41.015Z,100895.09
2023-05-12T19:45:10.621Z,100893.97
2023-05-12T19:47:37.357Z,100890.59
2023-05-12T19:50:04.729Z,100892.88
2023-05-12T19:52:31.459Z,100905.94
2023-05-12T19:54:57.804Z,100899.16
2023-05-12T19:57:27.236Z,100904.00
2023-05-12T19:59:53.533Z,100901.91
2023-05-12T20:02:20.005Z,100903.03
2023-05-12T20:04:46.721Z,100907.03
2023-05-12T20:07:13.280Z,100914.31
2023-05-12T20:09:39.596Z,100900.31
2023-05-12T20:12:07.519Z,100914.94
2023-05-12T20:14:35.151Z,100911.41
2023-05-12T20:17:01.617Z,100908.97
2023-05-12T20:19:32.359Z,100920.38
2023-05-12T20:21:58.702Z,100916.97
2023-05-12T20:24:25.128Z,100915.38
2023-05-12T20:26:51.516Z,100915.50
2023-05-12T20:29:18.041Z,100916.00
2023-05-12T20:31:44.402Z,100925.00
2023-05-12T20:34:12.652Z,100919.50
2023-05-12T20:36:40.436Z,100918.13
2023-05-12T20:39:08.098Z,100919.94
2023-05-12T20:41:39.066Z,100927.09
2023-05-12T20:44:05.729Z,100923.84
2023-05-12T20:46:38.437Z,100934.63
2023-05-12T20:49:05.158Z,100932.50
2023-05-12T20:51:31.468Z,100932.31
2023-05-12T20:53:58.164Z,100928.72
2023-05-12T20:56:24.645Z,100936.47
2023-05-12T20:58:51.006Z,100939.34
2023-05-12T21:01:17.432Z,100941.03
2023-05-12T21:03:43.875Z,100940.38
2023-05-12T21:06:10.862Z,100938.03
2023-05-12T21:08:37.227Z,100937.16
2023-05-12T21:11:03.631Z,100945.53
2023-05-12T21:13:29.945Z,100942.38
2023-05-12T21:15:56.260Z,100943.22
2023-05-12T21:18:22.644Z,100948.25
2023-05-12T21:20:48.977Z,100948.38
2023-05-12T21:23:15.321Z,100940.34
2023-05-12T21:25:41.610Z,100949.34
2023-05-12T21:28:07.944Z,100951.22
2023-05-12T21:30:34.423Z,100960.53
2023-05-12T21:33:00.753Z,100956.97
2023-05-12T21:35:27.071Z,100964.31
2023-05-12T21:37:53.749Z,100963.38
2023-05-12T21:40:20.351Z,100966.91
2023-05-12T21:42:46.845Z,100968.13
2023-05-12T21:45:13.293Z,100967.03
2023-05-12T21:47:39.611Z,100967.44
2023-05-12T21:50:06.321Z,100966.56
2023-05-12T21:52:32.628Z,100963.56
2023-05-12T21:55:01.749Z,100960.53
2023-05-12T21:57:28.096Z,100966.31
2023-05-12T21:59:54.397Z,100962.88
2023-05-12T22:02:20.758Z,100960.75
2023-05-12T22:04:47.077Z,100964.72
2023-05-12T22:07:13.378Z,100965.69
2023-05-12T22:09:39.684Z,100969.34
2023-05-12T22:12:06.525Z,100962.59
2023-05-12T22:14:32.988Z,100962.75
2023-05-12T22:17:00.001Z,100961.75
2023-05-12T22:19:26.758Z,100959.53
2023-05-12T22:21:53.778Z,100963.38
2023-05-12T22:24:20.263Z,100964.38
2023-05-12T22:26:46.577Z,100977.50
2023-05-12T22:29:12.891Z,100983.81
2023-05-12T22:31:39.274Z,100985.06
2023-05-12T22:34:06.385Z,100980.75
2023-05-12T22:36:32.700Z,100986.47
2023-05-12T22:38:59.022Z,100977.47
2023-05-12T22:41:25.471Z,100979.28
2023-05-12T22:43:51.897Z,100985.50
2023-05-12T22:46:18.287Z,100992.59
2023-05-12T22:48:44.628Z,100985.59
2023-05-12T22:51:10.962Z,100988.31
2023-05-12T22:53:37.724Z,100990.84
2023-05-12T22:56:04.526Z,100991.59
2023-05-12T22:58:30.842Z,100994.75
2023-05-12T23:00:57.304Z,100996.69
2023-05-12T23:03:23.895Z,100991.59
2023-05-12T23:05:50.309Z,100993.69
2023-05-12T23:08:16.673Z,100994.47
2023-05-12T23:10:42.990Z,100992.94
2023-05-12T23:13:09.311Z,100993.28
2023-05-12T23:15:35.627Z,100990.91
2023-05-12T23:18:02.072Z,100983.56
2023-05-12T23:20:28.520Z,100990.47
2023-05-12T23:22:54.829Z,100993.41
2023-05-12T23:25:21.305Z,100988.97
2023-05-12T23:27:47.640Z,100984.47
2023-05-12T23:30:14.250Z,100991.13
2023-05-12T23:32:40.756Z,100987.00
2023-05-12T23:35:08.053Z,100980.69
2023-05-12T23:37:34.382Z,100981.97
2023-05-12T23:40:01.078Z,100978.69
2023-05-12T23:42:27.489Z,100975.81
2023-05-12T23:44:54.026Z,100978.09
2023-05-12T23:47:20.322Z,100967.28
2023-05-12T23:49:46.627Z,100978.75
2023-05-12T23:52:12.948Z,100971.38
2023-05-12T23:54:39.273Z,100969.22
2023-05-12T23:57:05.568Z,100969.16
2023-05-12T23:59:31.963Z,100971.66
